TO3010 / F-GZHT 7700 Squawk Report (18th of October, 2019)

Aircraft B738 Reg No. F-GZHT Age 4 years old
Model 737 Jet engines 2 First flight 20-04-15
Registered 07-05-15 Rollout N/A Delivered 04-05-15
Construction No. 41332 Line No. 5390 Series 8K2
ADSHEX 3964F3 Airline name Transavia France Owner ALC B378 41332 Llc
Airfield based Paris-Charles de Gaulle~Val-d'Oise~F First tracked 2017-07-13 06:55:00

Flight history for F-GZHT

Route Flight No Date Playback
???? N/A 2019-11-21 21:55:00
Orly (ORY) - Barajas (MAD) TO3188 2019-11-21 19:15:00
Tirana Rinas (TIA) - Orly (ORY) TO4291 2019-11-21 11:48:00
???? N/A 2019-11-21 08:25:00
Barcelona–El Prat (BCN) - Orly (ORY) TO3239 2019-11-20 21:34:00
Orly (ORY) - Barcelona–El Prat (BCN) TO3238 2019-11-20 20:00:00
Rafic Hariri Intl (BEY) - Orly (ORY) TO3981 2019-11-20 15:25:00
Orly (ORY) - Rafic Hariri Intl (BEY) TO3980 2019-11-20 11:00:00
???? N/A 2019-11-19 20:20:00
Orly (ORY) - Ben Gurion (TLV) TO3938 2019-11-19 14:48:00
???? N/A 2019-11-18 20:57:00
Orly (ORY) - Ben Gurion (TLV) TO3938 2019-11-18 15:00:00
Ramon Airport (ETM) - Orly (ORY) TO3921 2019-11-17 20:47:00
Orly (ORY) - Ramon Airport (ETM) TO3920 2019-11-17 14:16:00
Porto (OPO) - Orly (ORY) TO3403 2019-11-16 13:36:00
Orly (ORY) - Porto (OPO) TO3402 2019-11-16 10:45:00
???? N/A 2019-11-16 09:04:00
Barcelona–El Prat (BCN) - Orly (ORY) TO3239 2019-11-16 07:30:00
Orly (ORY) - Barcelona–El Prat (BCN) TO3238 2019-11-15 21:04:00
???? N/A 2019-11-15 17:26:00
Time Lat Lon Altitude Heading Speed Vertical Rate
2019-10-18 05:17:11 GMT 48.737492 2.366397 575 242 152 -640
2019-10-18 05:17:02 GMT 48.740753 2.375441 700 243 148 -832
2019-10-18 05:16:58 GMT 48.742054 2.379263 750 243 144 -704
2019-10-18 05:16:55 GMT 48.742493 2.380582 775 243 144 -640
2019-10-18 05:16:52 GMT 48.743866 2.384456 825 243 144 -832
2019-10-18 05:16:47 GMT 48.745285 2.388400 875 242 143 -704
2019-10-18 05:16:41 GMT 48.747299 2.394034 950 243 143 -768
2019-10-18 05:16:38 GMT 48.747894 2.395794 975 243 143 -768
2019-10-18 05:16:32 GMT 48.749828 2.401308 1,075 243 141 -768
2019-10-18 05:16:29 GMT 48.750809 2.404127 1,100 242 141 -704
2019-10-18 05:16:24 GMT 48.752335 2.408471 1,175 242 141 -704
2019-10-18 05:16:18 GMT 48.754253 2.413884 1,250 242 142 -832
2019-10-18 05:16:13 GMT 48.756207 2.419522 1,350 243 141 -704
2019-10-18 05:16:07 GMT 48.757416 2.423064 1,400 243 140 -832
2019-10-18 05:16:03 GMT 48.758789 2.427063 1,450 242 140 -704
2019-10-18 05:16:00 GMT 48.760162 2.430796 1,500 241 137 -704
2019-10-18 05:15:56 GMT 48.762119 2.436001 1,550 242 136 -704
2019-10-18 05:15:48 GMT 48.763702 2.440700 1,650 244 135 -704
2019-10-18 05:15:45 GMT 48.764877 2.444247 1,675 244 134 -768
2019-10-18 05:15:42 GMT 48.764877 2.444247 1,700 243 135 -768
2019-10-18 05:15:34 GMT 48.767284 2.451108 1,800 242 134 -832
2019-10-18 05:15:31 GMT 48.768448 2.454247 1,850 243 130 -704
2019-10-18 05:15:25 GMT 48.770267 2.459347 1,925 243 131 -768
2019-10-18 05:15:22 GMT 48.770966 2.461227 1,950 243 130 -704
2019-10-18 05:15:18 GMT 48.772175 2.464768 2,050 242 131 -704
2019-10-18 05:15:15 GMT 48.772934 2.466924 2,075 242 135 -640
2019-10-18 05:15:12 GMT 48.773849 2.469529 2,075 242 135 -640
2019-10-18 05:15:08 GMT 48.775013 2.472719 2,125 242 137 -576
2019-10-18 05:15:05 GMT 48.775909 2.475234 2,150 242 138 -512
2019-10-18 05:15:01 GMT 48.777294 2.479224 2,175 244 140 -384
2019-10-18 05:14:55 GMT 48.778885 2.483967 2,200 242 143 192
2019-10-18 05:14:52 GMT 48.779671 2.486235 2,200 242 143 192
2019-10-18 05:14:47 GMT 48.781765 2.492017 2,175 243 153 64
2019-10-18 05:14:41 GMT 48.783234 2.496361 2,175 243 152 128
2019-10-18 05:14:33 GMT 48.786026 2.504390 2,150 241 156 -128
2019-10-18 05:14:30 GMT 48.786896 2.506714 2,175 241 159 -128
2019-10-18 05:14:26 GMT 48.788910 2.512277 2,175 243 168 -512
2019-10-18 05:14:23 GMT 48.789444 2.513773 2,200 243 168 -512
2019-10-18 05:14:20 GMT 48.790749 2.517532 2,200 243 170 -576
2019-10-18 05:14:13 GMT 48.794678 2.528757 2,475 246 171 -512
2019-10-18 05:14:09 GMT 48.794678 2.528757 2,325 242 171 -576
2019-10-18 05:14:02 GMT 48.798103 2.538275 2,425 242 173 -512
2019-10-18 05:13:57 GMT 48.799500 2.542106 2,450 244 172 -576
2019-10-18 05:13:53 GMT 48.802185 2.550025 2,500 244 172 -640
2019-10-18 05:13:47 GMT 48.803505 2.554104 2,550 245 171 -512
2019-10-18 05:13:43 GMT 48.804340 2.556706 2,575 246 171 -512
2019-10-18 05:13:40 GMT 48.805412 2.560176 2,650 252 174 -384
2019-10-18 05:13:36 GMT 48.806351 2.564040 2,625 252 174 -384
2019-10-18 05:13:33 GMT 48.807369 2.568922 2,675 256 176 -448
2019-10-18 05:13:30 GMT 48.807739 2.571307 2,725 257 177 -512
2019-10-18 05:13:27 GMT 48.808548 2.576364 2,725 258 178 -384
2019-10-18 05:13:24 GMT 48.809052 2.579815 2,750 262 178 -448
2019-10-18 05:13:20 GMT 48.809418 2.583196 2,775 275 182 -256
2019-10-18 05:13:14 GMT 48.809322 2.590966 2,825 278 182 -384
2019-10-18 05:13:11 GMT 48.808903 2.595014 2,875 281 182 -576
2019-10-18 05:13:05 GMT 48.807999 2.602774 2,925 283 183 -384
2019-10-18 05:13:00 GMT 48.807182 2.608024 2,975 291 186 -320
2019-10-18 05:12:56 GMT 48.805939 2.613690 2,975 292 186 -704
2019-10-18 05:12:53 GMT 48.804977 2.617563 3,025 292 186 -704
2019-10-18 05:12:50 GMT 48.804157 2.620745 3,025 292 186 -704
2019-10-18 05:12:47 GMT 48.802666 2.626600 3,125 291 189 -1152
2019-10-18 05:12:43 GMT 48.802002 2.629324 3,200 291 190 -1664
2019-10-18 05:12:40 GMT 48.800903 2.633831 3,675 307 218 -1024
2019-10-18 05:12:37 GMT 48.799595 2.639104 3,375 290 191 -1408
2019-10-18 05:12:32 GMT 48.798615 2.643339 3,500 291 197 -960
2019-10-18 05:12:29 GMT 48.794750 2.656957 3,675 307 218 -1024
2019-10-18 05:12:22 GMT 48.794750 2.656957 3,675 303 213 -1024
2019-10-18 05:12:19 GMT 48.793495 2.659992 3,800 311 222 -1024
2019-10-18 05:12:14 GMT 48.788376 2.668160 3,875 325 238 -1536
2019-10-18 05:12:10 GMT 48.785908 2.670979 3,950 328 236 -1856
2019-10-18 05:12:06 GMT 48.782684 2.673903 4,075 332 243 -3200
2019-10-18 05:12:01 GMT 48.778656 2.677143 4,350 333 245 -3392
2019-10-18 05:11:58 GMT 48.775665 2.679435 4,350 333 245 -3392
2019-10-18 05:11:53 GMT 48.770187 2.683692 4,775 334 249 -3456
2019-10-18 05:11:49 GMT 48.765888 2.686952 5,100 334 248 -3392
2019-10-18 05:11:45 GMT 48.762211 2.689771 5,200 334 249 -3456
2019-10-18 05:11:38 GMT 48.753754 2.696228 5,675 334 250 -3456
2019-10-18 05:11:35 GMT 48.751282 2.698130 5,825 334 251 -3456
2019-10-18 05:11:29 GMT 48.745010 2.702848 6,175 334 254 -2944
2019-10-18 05:11:26 GMT 48.741451 2.705528 6,325 334 258 -2240
2019-10-18 05:11:23 GMT 48.739105 2.707285 6,575 334 262 -2240
2019-10-18 05:11:18 GMT 48.733723 2.711382 6,600 334 262 -2240
2019-10-18 05:11:15 GMT 48.729996 2.714186 6,675 334 264 -1984
2019-10-18 05:11:07 GMT 48.721664 2.720666 6,875 333 271 -832
2019-10-18 05:11:04 GMT 48.716721 2.724539 6,950 332 276 -1152
2019-10-18 05:10:57 GMT 48.710861 2.729257 7,025 332 278 -960
2019-10-18 05:10:54 GMT 48.701927 2.736535 7,100 332 282 -576
2019-10-18 05:10:51 GMT 48.701927 2.736535 7,125 332 286 -448
2019-10-18 05:10:48 GMT 48.698410 2.739399 7,175 332 290 -448
2019-10-18 05:10:44 GMT 48.695572 2.741723 7,175 332 294 -512
2019-10-18 05:10:38 GMT 48.686417 2.749258 7,250 332 304 -448
2019-10-18 05:10:35 GMT 48.684704 2.750702 7,250 332 304 -448
2019-10-18 05:10:32 GMT 48.680969 2.753836 7,300 332 306 -448
2019-10-18 05:10:27 GMT 48.673672 2.759881 7,350 331 318 -384
2019-10-18 05:10:24 GMT 48.670086 2.762917 7,350 331 320 -384
2019-10-18 05:10:16 GMT 48.660683 2.770868 7,400 331 330 -384
2019-10-18 05:10:13 GMT 48.655327 2.775493 7,425 331 341 -832
2019-10-18 05:10:06 GMT 48.646317 2.783274 7,500 331 345 -1536
2019-10-18 05:10:03 GMT 48.642105 2.786841 7,600 331 349 -2112
2019-10-18 05:09:55 GMT 48.631668 2.795809 7,875 331 355 -2112
2019-10-18 05:09:52 GMT 48.626186 2.800429 8,000 331 358 -2048
2019-10-18 05:09:45 GMT 48.616318 2.808886 8,225 331 364 -1280
2019-10-18 05:09:42 GMT 48.611938 2.812641 8,275 331 367 -768
2019-10-18 05:09:34 GMT 48.591877 2.829847 8,425 331 375 -832
2019-10-18 05:09:30 GMT 48.591877 2.829847 8,475 331 378 -896
2019-10-18 05:09:24 GMT 48.583054 2.837501 8,575 330 378 -960
2019-10-18 05:09:20 GMT 48.579121 2.840905 8,650 340 398 -2304
2019-10-18 05:09:15 GMT 48.571255 2.847772 8,675 330 378 -896
2019-10-18 05:09:07 GMT 48.557335 2.859987 8,800 330 381 -768
2019-10-18 05:09:03 GMT 48.553101 2.863745 8,850 330 382 -768
2019-10-18 05:08:56 GMT 48.539246 2.875812 8,975 335 391 -1472
2019-10-18 05:08:53 GMT 48.537643 2.877045 9,125 341 399 -2496
2019-10-18 05:08:48 GMT 48.529732 2.882538 9,125 341 399 -2496
2019-10-18 05:08:42 GMT 48.519470 2.887503 9,750 353 409 -3136
2019-10-18 05:08:37 GMT 48.508690 2.890416 9,750 355 412 -2560
2019-10-18 05:08:33 GMT 48.500702 2.891447 9,975 6 426 -1536
2019-10-18 05:08:27 GMT 48.489414 2.891573 10,200 6 426 -1536
2019-10-18 05:08:23 GMT 48.482025 2.890742 10,000 5 423 0
2019-10-18 05:08:20 GMT 48.474567 2.889549 10,000 6 425 -640
2019-10-18 05:08:16 GMT 48.468704 2.888630 10,000 6 425 -640
2019-10-18 05:08:13 GMT 48.462833 2.887670 10,075 6 426 -1472
2019-10-18 05:08:10 GMT 48.453827 2.886235 10,125 6 426 -1536
2019-10-18 05:08:03 GMT 48.443283 2.884489 10,325 6 426 -1536
2019-10-18 05:07:55 GMT 48.426407 2.881658 10,475 6 426 -1472
2019-10-18 05:07:51 GMT 48.420567 2.880659 10,550 6 427 -1472
2019-10-18 05:07:45 GMT 48.407204 2.878346 10,650 6 427 -1472
2019-10-18 05:07:42 GMT 48.401665 2.877406 10,800 6 428 -1536
2019-10-18 05:07:37 GMT 48.391068 2.875531 10,925 6 429 -1536
2019-10-18 05:07:31 GMT 48.381592 2.873770 11,050 6 429 -1344
2019-10-18 05:07:25 GMT 48.369781 2.871657 11,175 6 429 -960
2019-10-18 05:07:21 GMT 48.361908 2.870249 11,250 7 428 -896
2019-10-18 05:07:15 GMT 48.350143 2.867995 11,325 9 430 -960
2019-10-18 05:07:11 GMT 48.341103 2.865842 11,450 15 434 -960
2019-10-18 05:07:00 GMT 48.320663 2.856586 11,575 24 441 -1024
2019-10-18 05:06:51 GMT 48.295666 2.834328 11,800 37 447 -960
2019-10-18 05:06:47 GMT 48.295666 2.834328 11,825 37 447 -960
2019-10-18 05:06:39 GMT 48.284588 2.821318 11,925 38 447 -960
2019-10-18 05:06:35 GMT 48.276489 2.811796 12,000 38 446 -960
2019-10-18 05:06:30 GMT 48.269302 2.803345 12,075 38 447 -1024
2019-10-18 05:06:20 GMT 48.251392 2.782288 12,250 38 448 -960
2019-10-18 05:06:12 GMT 48.239319 2.768062 12,375 38 449 -896
2019-10-18 05:06:08 GMT 48.233414 2.761160 12,425 38 450 -896
2019-10-18 05:06:02 GMT 48.219971 2.745426 14,600 37 456 -2368
2019-10-18 05:05:57 GMT 48.215012 2.739610 12,625 38 453 -1920
2019-10-18 05:05:47 GMT 48.198837 2.720706 13,025 37 454 -2432
2019-10-18 05:05:43 GMT 48.192833 2.713768 13,100 37 458 -2368
2019-10-18 05:05:38 GMT 48.183567 2.702926 13,325 37 456 -2432
2019-10-18 05:05:35 GMT 48.179214 2.697918 13,450 37 456 -2368
2019-10-18 05:05:30 GMT 48.170254 2.687458 13,650 38 457 -2368
2019-10-18 05:05:27 GMT 48.166248 2.682760 13,825 37 458 -2368
2019-10-18 05:05:24 GMT 48.161224 2.676932 13,875 38 458 -2368
2019-10-18 05:05:18 GMT 48.149872 2.663635 14,225 37 459 -2432
2019-10-18 05:05:15 GMT 48.145203 2.658211 14,300 37 458 -2432
2019-10-18 05:05:11 GMT 48.139160 2.651138 14,400 38 460 -2432
2019-10-18 05:05:07 GMT 48.130463 2.641045 14,600 38 460 -2432
2019-10-18 05:05:04 GMT 48.124420 2.633904 14,750 42 464 -2432
2019-10-18 05:05:01 GMT 48.121811 2.630745 14,800 41 463 -2432
2019-10-18 05:04:54 GMT 48.110001 2.613991 15,100 49 467 -1792
2019-10-18 05:04:51 GMT 48.107117 2.609253 15,150 51 467 -1664
2019-10-18 05:04:46 GMT 48.099960 2.595590 15,375 56 468 -1664
2019-10-18 05:04:41 GMT 48.093117 2.579252 15,475 62 468 -1600
2019-10-18 05:04:38 GMT 48.091736 2.575264 15,550 65 467 -1536
2019-10-18 05:04:35 GMT 48.088928 2.566575 15,600 66 467 -1536
2019-10-18 05:04:30 GMT 48.082596 2.544039 15,775 68 467 -1472
2019-10-18 05:04:24 GMT 48.079384 2.532067 15,875 68 468 -1472
2019-10-18 05:04:19 GMT 48.076035 2.519440 15,975 68 469 -1536
2019-10-18 05:04:15 GMT 48.072636 2.506784 16,150 68 471 -1536
2019-10-18 05:04:11 GMT 48.068298 2.490463 16,225 68 472 -1472
2019-10-18 05:04:06 GMT 48.063648 2.472910 16,375 68 474 -1408
2019-10-18 05:04:03 GMT 48.062531 2.468628 16,400 68 474 -1408
2019-10-18 05:03:58 GMT 48.058685 2.454071 16,800 68 475 -1280
2019-10-18 05:03:55 GMT 48.055595 2.442486 16,600 68 475 -1280
2019-10-18 05:03:52 GMT 48.054012 2.436359 16,625 68 475 -1280
2019-10-18 05:03:48 GMT 48.050629 2.423584 16,825 68 475 -1344
2019-10-18 05:03:44 GMT 48.045307 2.403400 16,850 68 475 -1408
2019-10-18 05:03:38 GMT 48.042252 2.391861 17,075 68 476 -1472
2019-10-18 05:03:34 GMT 48.039047 2.379639 18,450 68 477 -3008
2019-10-18 05:03:31 GMT 48.036758 2.371124 17,125 68 476 -1920
2019-10-18 05:03:26 GMT 48.033066 2.356990 17,275 68 477 -2880
2019-10-18 05:03:23 GMT 48.030304 2.346611 17,450 68 478 -3136
2019-10-18 05:03:20 GMT 48.028336 2.339264 17,550 68 477 -3200
2019-10-18 05:03:17 GMT 48.025131 2.326973 17,775 68 477 -3200
2019-10-18 05:03:14 GMT 48.023010 2.319031 17,975 68 478 -2944
2019-10-18 05:03:10 GMT 48.018402 2.301917 18,200 68 478 -2688
2019-10-18 05:03:06 GMT 48.016445 2.294593 18,450 67 485 -1536
2019-10-18 05:03:03 GMT 48.014282 2.286598 18,450 67 485 -1536
2019-10-18 05:02:59 GMT 48.010765 2.273747 18,750 67 479 -3328
2019-10-18 05:02:56 GMT 48.007599 2.262085 18,975 67 479 -3264
2019-10-18 05:02:53 GMT 48.005585 2.254738 18,900 67 479 -3200
2019-10-18 05:02:48 GMT 48.001877 2.241280 19,350 67 481 -2304
2019-10-18 05:02:45 GMT 47.996288 2.221069 19,450 67 484 -1792
2019-10-18 05:02:36 GMT 47.989723 2.197618 19,675 67 488 -1984
2019-10-18 05:02:32 GMT 47.987675 2.190223 19,750 67 488 -2624
2019-10-18 05:02:25 GMT 47.982136 2.170222 20,175 68 487 -3968
2019-10-18 05:02:22 GMT 47.978413 2.156560 20,300 68 485 -4160
2019-10-18 05:02:17 GMT 47.974594 2.142265 20,625 68 483 -4032
2019-10-18 05:02:14 GMT 47.972946 2.136086 20,725 68 483 -3968
2019-10-18 05:02:11 GMT 47.970173 2.125573 20,900 68 482 -3840
2019-10-18 05:02:05 GMT 47.965565 2.106981 21,425 73 480 -3328
2019-10-18 05:02:02 GMT 47.963886 2.099445 21,675 75 479 -3008
2019-10-18 05:01:55 GMT 47.960083 2.075867 21,950 84 474 -2752
2019-10-18 05:01:52 GMT 47.958893 2.063026 22,125 87 471 -2816
2019-10-18 05:01:49 GMT 47.958488 2.055922 22,125 87 471 -2816
2019-10-18 05:01:45 GMT 47.958344 2.042427 22,575 97 463 -2368
2019-10-18 05:01:40 GMT 47.959045 2.026485 22,525 97 463 -2368
2019-10-18 05:01:34 GMT 47.961090 2.008369 22,775 103 456 -2368
2019-10-18 05:01:29 GMT 47.963654 1.994582 22,950 108 447 -2432
2019-10-18 05:01:26 GMT 47.966629 1.982483 23,125 114 438 -2496
2019-10-18 05:01:22 GMT 47.969101 1.974229 23,275 118 429 -2496
2019-10-18 05:01:19 GMT 47.972260 1.965248 23,450 123 420 -2496
2019-10-18 05:01:16 GMT 47.976223 1.955848 23,600 126 416 -2560
2019-10-18 05:01:11 GMT 47.979855 1.948453 23,775 130 406 -2560
2019-10-18 05:01:08 GMT 47.984741 1.939862 23,825 132 404 -2560
2019-10-18 05:01:04 GMT 47.990295 1.931808 24,325 151 369 -1408
2019-10-18 05:01:01 GMT 47.993870 1.927255 24,150 149 373 -1600
2019-10-18 05:00:58 GMT 47.998383 1.922185 24,225 146 376 -1792
2019-10-18 05:00:54 GMT 48.006668 1.914649 24,350 153 367 -1344
2019-10-18 05:00:51 GMT 48.008789 1.912994 24,500 175 342 -1088
2019-10-18 05:00:48 GMT 48.013420 1.909931 24,450 161 358 -1280
2019-10-18 05:00:44 GMT 48.019753 1.906691 24,550 165 353 -1280
2019-10-18 05:00:40 GMT 48.025772 1.904411 24,600 170 348 -1280
2019-10-18 05:00:35 GMT 48.034653 1.902832 24,725 178 340 -1024
2019-10-18 05:00:30 GMT 48.041565 1.902832 24,800 186 332 -256
2019-10-18 05:00:27 GMT 48.047699 1.903725 24,800 193 326 768
2019-10-18 05:00:22 GMT 48.052757 1.905212 24,800 194 326 960
2019-10-18 05:00:19 GMT 48.056805 1.906832 24,700 201 320 1024
2019-10-18 05:00:16 GMT 48.063263 1.910248 24,650 202 319 1024
2019-10-18 05:00:12 GMT 48.066814 1.912396 24,600 203 319 1024
2019-10-18 05:00:09 GMT 48.071457 1.915260 24,350 196 321 1088
2019-10-18 05:00:05 GMT 48.077755 1.918945 24,475 200 319 1088
2019-10-18 05:00:02 GMT 48.080841 1.920479 24,425 198 321 1088
2019-10-18 04:59:57 GMT 48.088509 1.923946 24,350 196 321 1024
2019-10-18 04:59:52 GMT 48.095398 1.926833 24,275 196 320 1088
2019-10-18 04:59:47 GMT 48.103359 1.930143 24,200 196 320 1088
2019-10-18 04:59:44 GMT 48.108215 1.932152 24,100 196 319 1024
2019-10-18 04:59:39 GMT 48.118721 1.936481 23,975 196 318 1024
2019-10-18 04:59:32 GMT 48.124100 1.938675 23,900 196 317 1024
2019-10-18 04:59:26 GMT 48.132874 1.942326 23,800 196 317 1024
2019-10-18 04:59:21 GMT 48.138794 1.944717 23,750 196 317 960
2019-10-18 04:59:18 GMT 48.144184 1.946975 23,650 196 317 960
2019-10-18 04:59:14 GMT 48.149258 1.949087 23,625 196 317 960
2019-10-18 04:59:11 GMT 48.153774 1.950918 23,600 196 317 960
2019-10-18 04:59:08 GMT 48.158291 1.952820 23,500 196 317 960
2019-10-18 04:59:05 GMT 48.161957 1.954299 23,475 196 317 960
2019-10-18 04:59:01 GMT 48.167927 1.956795 23,400 196 317 960
2019-10-18 04:58:55 GMT 48.178680 1.961276 23,300 196 316 896
2019-10-18 04:58:51 GMT 48.182034 1.962650 23,275 196 315 896
2019-10-18 04:58:46 GMT 48.189056 1.965567 23,200 196 314 896
2019-10-18 04:58:43 GMT 48.194416 1.967854 23,125 196 313 960
2019-10-18 04:58:40 GMT 48.197479 1.969158 23,100 196 313 1024
2019-10-18 04:58:34 GMT 48.205261 1.972468 23,000 196 310 1728
2019-10-18 04:58:30 GMT 48.210522 1.974648 22,925 196 308 2112
2019-10-18 04:58:27 GMT 48.216015 1.977033 22,750 196 308 2112
2019-10-18 04:58:24 GMT 48.219589 1.978525 22,675 197 307 2176
2019-10-18 04:58:19 GMT 48.226440 1.981442 22,450 197 307 2176
2019-10-18 04:58:16 GMT 48.230530 1.983244 22,375 197 306 2240
2019-10-18 04:58:13 GMT 48.235706 1.985417 22,250 197 305 2304
2019-10-18 04:58:09 GMT 48.241104 1.987803 22,100 196 304 2304
2019-10-18 04:58:06 GMT 48.244366 1.989176 22,000 197 303 2304
2019-10-18 04:58:03 GMT 48.247578 1.990549 21,900 197 303 2304
2019-10-18 04:58:00 GMT 48.251907 1.992428 21,775 196 302 2432
2019-10-18 04:57:56 GMT 48.256748 1.994525 21,625 196 302 2496
2019-10-18 04:57:53 GMT 48.260788 1.996202 21,525 196 301 2560
2019-10-18 04:57:50 GMT 48.265362 1.998211 21,325 196 302 2688
2019-10-18 04:57:47 GMT 48.269642 2.000018 21,225 195 303 2624
2019-10-18 04:57:43 GMT 48.279465 2.003415 20,350 192 303 2496
2019-10-18 04:57:40 GMT 48.279465 2.003415 20,925 190 304 2560
2019-10-18 04:57:37 GMT 48.283936 2.004499 20,775 188 306 2624
2019-10-18 04:57:34 GMT 48.287846 2.005222 20,650 187 306 2688
2019-10-18 04:57:30 GMT 48.298504 2.007318 20,375 190 304 2624
2019-10-18 04:57:27 GMT 48.298504 2.007318 20,150 191 303 2624
2019-10-18 04:57:23 GMT 48.302124 2.008244 20,200 191 303 2624
2019-10-18 04:57:19 GMT 48.307861 2.009992 20,025 194 301 2560
2019-10-18 04:57:14 GMT 48.314846 2.012666 19,800 197 298 2432
2019-10-18 04:57:09 GMT 48.321690 2.015702 19,600 198 297 2368
2019-10-18 04:57:04 GMT 48.327972 2.018666 19,450 198 295 2304
2019-10-18 04:57:01 GMT 48.335281 2.021990 19,200 198 292 2432
2019-10-18 04:56:53 GMT 48.342270 2.025217 18,975 198 291 2432
2019-10-18 04:56:49 GMT 48.348690 2.028206 18,775 198 290 2432
2019-10-18 04:56:44 GMT 48.354584 2.030921 18,550 197 288 2432
2019-10-18 04:56:41 GMT 48.358200 2.032541 18,400 197 288 2496
2019-10-18 04:56:37 GMT 48.362274 2.034443 18,350 197 287 2496
2019-10-18 04:56:34 GMT 48.372150 2.038976 18,075 197 285 2560
2019-10-18 04:56:30 GMT 48.372150 2.038976 18,000 197 285 2624
2019-10-18 04:56:27 GMT 48.375458 2.040429 17,900 197 285 2624
2019-10-18 04:56:22 GMT 48.382004 2.043457 17,725 197 284 2752
2019-10-18 04:56:19 GMT 48.384979 2.044795 17,550 198 283 2752
2019-10-18 04:56:16 GMT 48.389511 2.046837 17,475 198 283 2752
2019-10-18 04:56:13 GMT 48.393494 2.048668 17,100 197 282 2752
2019-10-18 04:56:10 GMT 48.397018 2.050288 17,000 197 281 2752
2019-10-18 04:56:07 GMT 48.400734 2.051986 16,975 197 281 2816
2019-10-18 04:56:03 GMT 48.405716 2.054299 16,700 198 280 2944
2019-10-18 04:56:00 GMT 48.410694 2.056539 16,600 198 280 2944
2019-10-18 04:55:57 GMT 48.414654 2.058419 16,450 198 279 3008
2019-10-18 04:55:52 GMT 48.419357 2.060570 16,125 198 279 2944
2019-10-18 04:55:49 GMT 48.427967 2.064562 15,850 198 278 2944
2019-10-18 04:55:43 GMT 48.430435 2.065719 15,550 198 278 2944
2019-10-18 04:55:40 GMT 48.433640 2.067190 15,675 198 278 2944
2019-10-18 04:55:37 GMT 48.437576 2.069021 15,625 198 278 2944
2019-10-18 04:55:33 GMT 48.443939 2.071909 15,275 198 276 2944
2019-10-18 04:55:29 GMT 48.451263 2.075289 15,075 198 275 3072
2019-10-18 04:55:26 GMT 48.451263 2.075289 14,975 198 275 3072
2019-10-18 04:55:23 GMT 48.455898 2.077428 14,800 198 275 3072
2019-10-18 04:55:20 GMT 48.458321 2.078584 14,725 198 274 3008
2019-10-18 04:55:17 GMT 48.463161 2.080825 14,625 198 274 2944
2019-10-18 04:55:12 GMT 48.471588 2.084726 13,850 198 272 2752
2019-10-18 04:55:08 GMT 48.472549 2.085149 14,125 198 272 2368
2019-10-18 04:55:05 GMT 48.475937 2.086698 14,025 198 272 2368
2019-10-18 04:55:01 GMT 48.480946 2.089065 13,750 198 268 2752
2019-10-18 04:54:58 GMT 48.485001 2.090924 13,700 198 267 2752
2019-10-18 04:54:52 GMT 48.495094 2.095642 13,350 198 265 2688
2019-10-18 04:54:46 GMT 48.498596 2.097332 13,225 198 264 2688
2019-10-18 04:54:40 GMT 48.507153 2.101352 12,850 198 261 1920
2019-10-18 04:54:36 GMT 48.511761 2.103520 12,675 197 254 1984
2019-10-18 04:54:29 GMT 48.518139 2.106412 12,575 197 251 3008
2019-10-18 04:54:25 GMT 48.523956 2.109014 12,350 197 250 4160
2019-10-18 04:54:19 GMT 48.529495 2.111488 11,625 197 254 4288
2019-10-18 04:54:16 GMT 48.532894 2.113061 11,750 198 256 4096
2019-10-18 04:54:09 GMT 48.542221 2.117403 11,250 198 261 3136
2019-10-18 04:54:06 GMT 48.545425 2.118953 11,100 198 262 2240
2019-10-18 04:54:03 GMT 48.549374 2.120795 10,975 198 261 1536
2019-10-18 04:53:58 GMT 48.553936 2.122963 10,875 198 256 1024
2019-10-18 04:53:54 GMT 48.558453 2.125132 10,800 198 251 1088
2019-10-18 04:53:51 GMT 48.563095 2.127333 10,750 198 250 1088
2019-10-18 04:53:47 GMT 48.565292 2.128390 10,700 198 244 960
2019-10-18 04:53:44 GMT 48.569595 2.130432 10,650 198 237 896
2019-10-18 04:53:38 GMT 48.576279 2.133531 10,525 198 231 1792
2019-10-18 04:53:34 GMT 48.579308 2.134962 10,050 197 228 2112
2019-10-18 04:53:31 GMT 48.581955 2.136137 10,325 197 229 2688
2019-10-18 04:53:27 GMT 48.590469 2.139940 10,050 198 224 2112
2019-10-18 04:53:23 GMT 48.590469 2.139940 10,000 198 224 2112
2019-10-18 04:53:15 GMT 48.598209 2.143563 9,500 197 223 2368
2019-10-18 04:53:12 GMT 48.601002 2.144791 9,600 197 222 2496
2019-10-18 04:53:09 GMT 48.604340 2.146348 9,425 197 222 2752
2019-10-18 04:53:05 GMT 48.608498 2.148261 9,200 198 222 3136
2019-10-18 04:53:02 GMT 48.611614 2.149706 9,075 198 222 3136
2019-10-18 04:52:58 GMT 48.614780 2.151224 8,900 198 223 2880
2019-10-18 04:52:55 GMT 48.618690 2.153103 8,725 198 221 2688
2019-10-18 04:52:52 GMT 48.621643 2.154447 8,575 198 221 2816
2019-10-18 04:52:49 GMT 48.624603 2.155850 8,450 198 220 3072
2019-10-18 04:52:44 GMT 48.630203 2.158602 8,225 198 221 3200
2019-10-18 04:52:41 GMT 48.632172 2.159518 7,950 198 222 3072
2019-10-18 04:52:38 GMT 48.634918 2.160856 7,750 197 222 3072
2019-10-18 04:52:34 GMT 48.638664 2.162572 7,700 197 222 3200
2019-10-18 04:52:31 GMT 48.641602 2.163884 7,525 199 222 3200
2019-10-18 04:52:28 GMT 48.644527 2.165319 7,275 203 221 3136
2019-10-18 04:52:24 GMT 48.648766 2.167776 7,150 207 220 3200
2019-10-18 04:52:20 GMT 48.652393 2.170523 6,950 212 219 3328
2019-10-18 04:52:17 GMT 48.654602 2.172617 6,800 225 221 3136
2019-10-18 04:52:13 GMT 48.657749 2.175943 6,600 221 219 3392
2019-10-18 04:52:10 GMT 48.660774 2.179991 6,350 231 221 2496
2019-10-18 04:52:07 GMT 48.662125 2.182232 5,825 233 219 2304
2019-10-18 04:52:03 GMT 48.664673 2.187336 6,100 235 216 2304
2019-10-18 04:51:59 GMT 48.667294 2.193001 5,925 236 212 2112
2019-10-18 04:51:56 GMT 48.668747 2.196139 5,825 236 208 1984
2019-10-18 04:51:53 GMT 48.670364 2.199795 5,725 237 208 2048
2019-10-18 04:51:49 GMT 48.673004 2.205787 5,550 237 203 1856
2019-10-18 04:51:43 GMT 48.677345 2.215841 5,175 238 197 2688
2019-10-18 04:51:40 GMT 48.677345 2.215841 5,225 237 197 3072
2019-10-18 04:51:37 GMT 48.678635 2.218886 5,100 237 197 3136
2019-10-18 04:51:33 GMT 48.680832 2.223957 4,875 237 198 2560
2019-10-18 04:51:27 GMT 48.683807 2.230858 4,600 236 195 1600
2019-10-18 04:51:22 GMT 48.688705 2.241645 4,200 235 169 1216
2019-10-18 04:51:16 GMT 48.691547 2.247861 4,350 236 174 1216
2019-10-18 04:51:11 GMT 48.691547 2.247861 4,275 236 174 1216
2019-10-18 04:51:06 GMT 48.693733 2.252559 4,175 235 167 1088
2019-10-18 04:51:00 GMT 48.696388 2.258196 4,075 235 156 1216
2019-10-18 04:50:56 GMT 48.698204 2.262099 3,975 235 150 1536
2019-10-18 04:50:52 GMT 48.699322 2.264485 3,900 235 147 1344
2019-10-18 04:50:49 GMT 48.701321 2.268821 3,775 236 140 2048
2019-10-18 04:50:45 GMT 48.702206 2.270773 3,700 236 138 2688
2019-10-18 04:50:41 GMT 48.703648 2.274025 3,500 236 139 3072
2019-10-18 04:50:38 GMT 48.704590 2.276071 3,400 236 141 2816
2019-10-18 04:50:35 GMT 48.706116 2.279519 3,200 237 140 2560
2019-10-18 04:50:31 GMT 48.707382 2.282269 3,050 236 140 2752
2019-10-18 04:50:28 GMT 48.708164 2.284072 2,950 236 141 2560
2019-10-18 04:50:24 GMT 48.710075 2.288337 2,725 238 141 2240
2019-10-18 04:50:18 GMT 48.711823 2.292480 2,575 241 141 3072
2019-10-18 04:50:13 GMT 48.714031 2.298600 2,175 243 145 3328

Making use of Plane Finder data

You are free to use the raw flight data, aircraft information and images provided in this report for your own purposes provided the data is correctly attributed to Plane Finder. We ask that you please credit Plane Finder and link to planefinder.net in close proximity to the content.

Optionally one of the following logos (no smaller then 150x24px) can be used and must link to planefinder.net

Embedding the Plane Finder map

You are welcome to embed the Plane Finder playback map on your website to offer visitors a more interactive experience. We suggest using the following HTML code:

<iframe src="//planefinder.net/data/report/TO3010-F-GZHT-7700-squawk-2019-10-18/map" width="800" height="600" seamless="seamless"></iframe>

Where our data comes from

Plane Finder has a global network of data feeds and antenna radars that receive data broadcast directly from aircraft. The primary technologies used are ADS-B and MLAT. We also show feeds from the FAA and a FLARM glider feed.

Click here to find out more about the Plane Finder network.

How we collect our data